Time;durP1;ratioP1;P1;durP2;ratioP2;P2;SDS_P1;SDS_P2;PMS_P1;PMS_P2;Temp;Humidity;BMP_temperature;BMP_pressure;BME280_temperature;BME280_humidity;BME280_pressure;Samples;Min_cycle;Max_cycle;Signal;HPM_P1;HPM_P2
2023/04/14 00:00:58;;;;;;;8.85;2.20;;;5.00;99.90;;;;;;5059343;28;20048;-84
2023/04/14 00:03:23;;;;;;;9.90;2.53;;;5.00;99.90;;;;;;5072535;28;20051;-84
2023/04/14 00:05:49;;;;;;;4.60;2.00;;;5.00;99.90;;;;;;5041530;28;20067;-85
2023/04/14 00:08:14;;;;;;;7.40;2.25;;;5.00;99.90;;;;;;5034443;28;20036;-84
2023/04/14 00:10:40;;;;;;;7.95;2.65;;;5.00;99.90;;;;;;5034785;28;20102;-84
2023/04/14 00:13:06;;;;;;;7.80;2.20;;;4.90;99.90;;;;;;5052183;28;20033;-85
2023/04/14 00:15:31;;;;;;;7.32;2.17;;;4.90;99.90;;;;;;5052116;28;20124;-84
2023/04/14 00:17:57;;;;;;;7.63;1.90;;;4.80;99.90;;;;;;5035239;28;20044;-85
2023/04/14 00:20:23;;;;;;;8.23;2.17;;;4.80;99.90;;;;;;5051905;28;20090;-85
2023/04/14 00:22:48;;;;;;;8.70;2.38;;;4.80;99.90;;;;;;5035973;28;20063;-85
2023/04/14 00:25:14;;;;;;;9.30;2.45;;;4.80;99.90;;;;;;5035682;28;20048;-84
2023/04/14 00:27:39;;;;;;;8.45;2.30;;;4.80;99.90;;;;;;5051940;28;20036;-84
2023/04/14 00:30:05;;;;;;;8.52;2.53;;;4.70;99.90;;;;;;5035227;28;20045;-84
2023/04/14 00:32:31;;;;;;;7.57;2.38;;;4.70;99.90;;;;;;5035255;28;20067;-85
2023/04/14 00:34:58;;;;;;;8.95;2.65;;;4.70;99.90;;;;;;5035280;28;20041;-84
2023/04/14 00:37:24;;;;;;;6.25;2.10;;;4.70;99.90;;;;;;5033966;28;20037;-84
2023/04/14 00:39:50;;;;;;;6.80;2.10;;;4.60;99.90;;;;;;5051412;28;20508;-84
2023/04/14 00:42:15;;;;;;;6.70;2.40;;;4.60;99.90;;;;;;5050834;28;20056;-85
2023/04/14 00:44:41;;;;;;;5.78;2.33;;;4.50;99.90;;;;;;5051050;28;20037;-84
2023/04/14 00:47:06;;;;;;;6.15;2.40;;;4.50;99.90;;;;;;5041989;28;20069;-85
2023/04/14 00:49:32;;;;;;;7.90;2.42;;;4.50;99.90;;;;;;5048390;28;20150;-85
2023/04/14 00:51:58;;;;;;;6.95;2.45;;;4.50;99.90;;;;;;5064607;28;20040;-84
2023/04/14 00:54:24;;;;;;;8.18;2.65;;;4.50;99.90;;;;;;5052919;28;20051;-84
2023/04/14 00:56:52;;;;;;;9.15;3.00;;;4.50;99.90;;;;;;5061334;28;20045;-85
2023/04/14 00:59:18;;;;;;;6.50;2.20;;;4.50;99.90;;;;;;5071144;28;20403;-84
2023/04/14 01:01:44;;;;;;;7.47;2.50;;;4.50;99.90;;;;;;5044132;28;20116;-84
2023/04/14 01:04:10;;;;;;;8.50;2.60;;;4.50;99.90;;;;;;5063266;28;20045;-85
2023/04/14 01:06:35;;;;;;;6.18;2.60;;;4.50;99.90;;;;;;5060723;28;20564;-84
2023/04/14 01:09:02;;;;;;;6.70;2.15;;;4.60;99.90;;;;;;5043440;28;20047;-84
2023/04/14 01:11:55;;;;;;;7.30;2.22;;;5.00;99.90;;;;;;5066276;28;20036;-84
2023/04/14 01:14:45;;;;;;;7.15;2.15;;;4.50;99.90;;;;;;5069776;28;20057;-84
2023/04/14 01:17:29;;;;;;;8.18;2.53;;;4.50;99.90;;;;;;5061123;28;20162;-85
2023/04/14 01:20:21;;;;;;;9.43;1.95;;;4.50;99.90;;;;;;5059315;28;20041;-84
2023/04/14 01:23:00;;;;;;;5.68;2.45;;;4.40;99.90;;;;;;5064754;28;20036;-84
2023/04/14 01:25:45;;;;;;;7.00;1.73;;;4.40;99.90;;;;;;5066574;28;20059;-85
2023/04/14 01:28:47;;;;;;;6.15;2.53;;;4.40;99.90;;;;;;5050589;28;20068;-85
2023/04/14 01:31:20;;;;;;;5.70;2.05;;;4.40;99.90;;;;;;5066259;28;20048;-85
2023/04/14 01:33:53;;;;;;;5.47;2.08;;;4.40;99.90;;;;;;5052520;28;20642;-84
2023/04/14 01:36:27;;;;;;;6.10;2.25;;;4.40;99.90;;;;;;5067009;28;20094;-85
2023/04/14 01:38:55;;;;;;;6.35;2.35;;;4.60;99.90;;;;;;5057605;28;20056;-84
2023/04/14 01:41:21;;;;;;;6.65;2.00;;;4.30;99.90;;;;;;5048535;28;20124;-85
2023/04/14 01:43:51;;;;;;;6.38;2.20;;;4.30;99.90;;;;;;5063668;28;20051;-84
2023/04/14 01:46:17;;;;;;;8.05;2.40;;;4.30;99.90;;;;;;5050289;28;20552;-84
2023/04/14 01:48:44;;;;;;;7.65;2.53;;;4.30;99.90;;;;;;5069535;28;20040;-84
2023/04/14 01:51:11;;;;;;;7.32;2.25;;;4.30;99.90;;;;;;5064682;28;20037;-84
2023/04/14 01:53:41;;;;;;;6.25;2.50;;;4.30;99.90;;;;;;5062200;28;20040;-84
2023/04/14 01:56:10;;;;;;;5.97;2.47;;;4.30;99.90;;;;;;5060863;28;20041;-84
2023/04/14 01:58:37;;;;;;;6.55;2.10;;;4.20;99.90;;;;;;5070349;28;20043;-84
2023/04/14 02:01:04;;;;;;;7.05;2.35;;;4.20;99.90;;;;;;5044580;28;20079;-84
2023/04/14 02:03:30;;;;;;;8.38;2.45;;;4.10;99.90;;;;;;5062672;28;20039;-84
2023/04/14 02:05:56;;;;;;;5.95;2.17;;;4.10;99.90;;;;;;5062124;28;20120;-85
2023/04/14 02:08:23;;;;;;;7.35;2.75;;;4.10;99.90;;;;;;5047045;28;20167;-84
2023/04/14 02:10:51;;;;;;;5.88;2.35;;;4.00;99.90;;;;;;5069346;28;20391;-84
2023/04/14 02:13:19;;;;;;;9.38;2.40;;;4.40;99.90;;;;;;5044154;28;20033;-84
2023/04/14 02:15:47;;;;;;;7.53;2.15;;;4.00;99.90;;;;;;5065036;28;20040;-84
2023/04/14 02:18:14;;;;;;;5.20;2.00;;;4.00;99.90;;;;;;5051325;28;20124;-84
2023/04/14 02:20:43;;;;;;;5.30;2.00;;;4.20;99.90;;;;;;5066699;28;20044;-84
2023/04/14 02:23:10;;;;;;;4.38;1.92;;;3.90;99.90;;;;;;5066944;28;20037;-84
2023/04/14 02:25:39;;;;;;;8.43;1.80;;;3.80;99.90;;;;;;5064156;28;20053;-84
2023/04/14 02:28:09;;;;;;;6.13;2.00;;;3.80;99.90;;;;;;5060836;28;20048;-85
2023/04/14 02:30:38;;;;;;;5.55;1.95;;;3.90;99.90;;;;;;5052798;28;20044;-84
2023/04/14 02:33:08;;;;;;;4.53;1.75;;;3.90;99.90;;;;;;5064836;28;20058;-84
2023/04/14 02:35:38;;;;;;;4.93;1.75;;;3.80;99.90;;;;;;5060734;28;20123;-84
2023/04/14 02:38:35;;;;;;;4.05;1.50;;;3.80;99.90;;;;;;5072754;28;20496;-84
2023/04/14 02:41:11;;;;;;;7.60;2.47;;;3.80;99.90;;;;;;5055514;28;20504;-84
2023/04/14 02:43:48;;;;;;;3.20;1.60;;;3.80;99.90;;;;;;5062273;28;20040;-84
2023/04/14 02:46:16;;;;;;;6.05;1.80;;;3.80;99.90;;;;;;5059606;28;20037;-84
2023/04/14 02:48:44;;;;;;;12.40;2.47;;;3.70;99.90;;;;;;5062947;28;20085;-84
2023/04/14 02:51:13;;;;;;;4.55;1.60;;;3.80;99.90;;;;;;5065387;28;20111;-84
2023/04/14 02:53:39;;;;;;;4.32;1.85;;;3.80;99.90;;;;;;5069516;28;20044;-84
2023/04/14 02:56:06;;;;;;;6.07;1.65;;;3.80;99.90;;;;;;5068696;28;20067;-84
2023/04/14 02:58:32;;;;;;;6.60;1.90;;;3.80;99.90;;;;;;5039048;28;20161;-84
2023/04/14 03:00:59;;;;;;;8.20;2.33;;;3.70;99.90;;;;;;5064988;28;20044;-84
2023/04/14 03:03:27;;;;;;;5.70;2.00;;;3.70;99.90;;;;;;5063147;28;20037;-84
2023/04/14 03:05:53;;;;;;;6.95;2.13;;;3.80;99.90;;;;;;5042503;28;20052;-84
2023/04/14 03:08:19;;;;;;;3.53;1.75;;;3.70;99.90;;;;;;5042070;28;20142;-84
2023/04/14 03:10:47;;;;;;;5.28;2.10;;;3.60;99.90;;;;;;5067512;28;20032;-84
2023/04/14 03:13:14;;;;;;;4.78;2.10;;;3.60;99.90;;;;;;5066651;28;20535;-84
2023/04/14 03:15:41;;;;;;;6.50;1.88;;;3.80;99.90;;;;;;5049397;28;20036;-84
2023/04/14 03:18:07;;;;;;;5.28;2.15;;;3.60;99.90;;;;;;5051986;28;20411;-84
2023/04/14 03:20:34;;;;;;;5.13;1.98;;;4.00;99.90;;;;;;5053435;28;20044;-84
2023/04/14 03:23:03;;;;;;;5.57;2.13;;;3.50;99.90;;;;;;5067942;28;20505;-84
2023/04/14 03:25:31;;;;;;;7.00;1.85;;;3.80;99.90;;;;;;5071259;28;20120;-84
2023/04/14 03:28:00;;;;;;;4.10;1.90;;;3.50;99.90;;;;;;5071894;28;20068;-84
2023/04/14 03:30:30;;;;;;;6.30;2.15;;;3.50;99.90;;;;;;5063933;28;20043;-84
2023/04/14 03:33:07;;;;;;;4.60;2.03;;;3.50;99.90;;;;;;5040103;28;20120;-84
2023/04/14 03:35:35;;;;;;;4.53;2.00;;;3.50;99.90;;;;;;5062984;28;20105;-84
2023/04/14 03:38:04;;;;;;;6.93;2.22;;;3.50;99.90;;;;;;5042798;28;20045;-84
2023/04/14 03:40:33;;;;;;;7.72;2.78;;;3.40;99.90;;;;;;5064717;28;20028;-84
2023/04/14 03:43:01;;;;;;;5.55;2.10;;;3.70;99.90;;;;;;5064331;28;20041;-84
2023/04/14 03:45:27;;;;;;;5.47;2.15;;;3.40;99.90;;;;;;5053768;28;20432;-85
2023/04/14 03:47:58;;;;;;;4.22;2.50;;;3.40;99.90;;;;;;5066168;28;20119;-84
2023/04/14 03:50:29;;;;;;;7.03;2.47;;;3.80;99.90;;;;;;5063811;28;20094;-84
2023/04/14 03:52:59;;;;;;;5.70;2.40;;;3.30;99.90;;;;;;5055783;28;20412;-84
2023/04/14 03:55:27;;;;;;;4.50;2.13;;;3.30;99.90;;;;;;5071507;28;20045;-84
2023/04/14 03:57:56;;;;;;;5.80;2.50;;;3.30;99.90;;;;;;5071010;28;20050;-84
2023/04/14 04:00:22;;;;;;;3.83;2.22;;;3.50;99.90;;;;;;5066781;28;20135;-84
2023/04/14 04:02:49;;;;;;;6.75;2.20;;;3.30;99.90;;;;;;5058550;28;20136;-84
2023/04/14 04:05:15;;;;;;;5.95;2.55;;;3.20;99.90;;;;;;5054281;28;20048;-84
2023/04/14 04:07:43;;;;;;;6.18;2.30;;;3.20;99.90;;;;;;5066296;28;20045;-84
2023/04/14 04:10:11;;;;;;;7.32;2.30;;;3.20;99.90;;;;;;5062509;28;20037;-85
2023/04/14 04:12:40;;;;;;;5.70;2.88;;;3.60;99.90;;;;;;5043607;28;20056;-85
2023/04/14 04:15:06;;;;;;;7.45;2.40;;;3.20;99.90;;;;;;5067741;28;20060;-84
2023/04/14 04:17:33;;;;;;;8.05;2.60;;;3.20;99.90;;;;;;5063338;28;20049;-84
2023/04/14 04:20:00;;;;;;;7.68;2.58;;;3.20;99.90;;;;;;5067126;28;20051;-84
2023/04/14 04:22:27;;;;;;;7.35;2.28;;;3.10;99.90;;;;;;5054924;28;20075;-84
2023/04/14 04:24:54;;;;;;;5.22;2.15;;;3.10;99.90;;;;;;5065236;28;20037;-84
2023/04/14 04:27:21;;;;;;;8.43;2.42;;;3.10;99.90;;;;;;5068735;28;20071;-84
2023/04/14 04:29:47;;;;;;;8.93;2.25;;;3.40;99.90;;;;;;5067467;28;20082;-84
2023/04/14 04:32:13;;;;;;;6.30;2.53;;;3.10;99.90;;;;;;5064634;28;20535;-85
2023/04/14 04:34:39;;;;;;;8.20;2.70;;;3.10;99.90;;;;;;5065532;28;20055;-84
2023/04/14 04:37:05;;;;;;;4.40;2.05;;;3.10;99.90;;;;;;5069242;28;20072;-84
2023/04/14 04:39:31;;;;;;;6.05;2.50;;;3.10;99.90;;;;;;5068908;28;20408;-84
2023/04/14 04:42:04;;;;;;;7.18;2.40;;;3.40;99.90;;;;;;5064465;28;20039;-83
2023/04/14 04:44:32;;;;;;;7.00;2.33;;;3.10;99.90;;;;;;5060780;28;20040;-84
2023/04/14 04:46:58;;;;;;;4.45;2.20;;;3.30;99.90;;;;;;5070228;28;20044;-84
2023/04/14 04:49:23;;;;;;;6.72;2.45;;;3.00;99.90;;;;;;5046154;28;20052;-84
2023/04/14 04:51:49;;;;;;;6.75;2.33;;;3.00;99.90;;;;;;5062604;28;20071;-84
2023/04/14 04:54:15;;;;;;;6.45;2.55;;;3.00;99.90;;;;;;5042307;28;20115;-84
2023/04/14 04:56:41;;;;;;;4.53;2.40;;;3.00;99.90;;;;;;5059319;28;20500;-84
2023/04/14 04:59:07;;;;;;;6.05;2.50;;;3.00;99.90;;;;;;5059346;28;20033;-85
2023/04/14 05:01:32;;;;;;;5.50;2.10;;;3.00;99.90;;;;;;5069168;28;20043;-84
2023/04/14 05:03:58;;;;;;;9.15;2.38;;;3.00;99.90;;;;;;5044830;28;20085;-84
2023/04/14 05:06:24;;;;;;;5.88;2.03;;;3.00;99.90;;;;;;5063869;28;20040;-84
2023/04/14 05:08:56;;;;;;;7.57;2.40;;;3.00;99.90;;;;;;5068118;28;20098;-84
2023/04/14 05:11:22;;;;;;;5.18;2.50;;;3.10;99.90;;;;;;5061711;28;20090;-84
2023/04/14 05:13:48;;;;;;;4.53;2.30;;;3.10;99.90;;;;;;5035231;28;20040;-84
2023/04/14 05:16:14;;;;;;;6.70;2.58;;;3.10;99.90;;;;;;5058237;28;20455;-85
2023/04/14 05:18:41;;;;;;;5.53;2.28;;;3.10;99.90;;;;;;5053682;28;20045;-84
2023/04/14 05:21:11;;;;;;;5.30;2.40;;;3.10;99.90;;;;;;5042939;28;20056;-84
2023/04/14 05:23:38;;;;;;;5.68;2.33;;;3.10;99.90;;;;;;5036871;28;20052;-84
2023/04/14 05:26:05;;;;;;;4.03;2.20;;;3.10;99.90;;;;;;5060786;28;20152;-84
2023/04/14 05:28:31;;;;;;;4.70;2.30;;;3.20;99.90;;;;;;5068581;28;20032;-85
2023/04/14 05:30:57;;;;;;;11.88;2.90;;;3.20;99.90;;;;;;5057772;28;20124;-84
2023/04/14 05:33:22;;;;;;;5.55;2.42;;;3.20;99.90;;;;;;5038916;28;20170;-84
2023/04/14 05:35:51;;;;;;;7.97;2.50;;;3.70;99.90;;;;;;5056630;28;20037;-84
2023/04/14 05:38:18;;;;;;;5.50;2.25;;;3.50;99.90;;;;;;5056198;28;20120;-83
2023/04/14 05:40:44;;;;;;;7.63;2.72;;;3.40;99.90;;;;;;5057437;28;20044;-84
2023/04/14 05:43:09;;;;;;;5.63;2.65;;;3.40;99.90;;;;;;5054841;28;20041;-84
2023/04/14 05:45:35;;;;;;;3.95;2.13;;;3.50;99.90;;;;;;5044887;28;20098;-84
2023/04/14 05:48:01;;;;;;;5.20;2.33;;;3.60;99.90;;;;;;5064327;28;20041;-84
2023/04/14 05:50:26;;;;;;;7.63;2.95;;;4.10;99.90;;;;;;5058820;28;20054;-85
2023/04/14 05:52:52;;;;;;;5.32;2.15;;;3.90;99.90;;;;;;5066205;28;20064;-84
2023/04/14 05:55:18;;;;;;;5.72;2.10;;;4.10;99.90;;;;;;5070072;28;20086;-83
2023/04/14 05:57:44;;;;;;;6.47;2.20;;;4.20;99.90;;;;;;5056888;28;20059;-84
2023/04/14 06:00:11;;;;;;;8.82;2.85;;;4.30;99.90;;;;;;5054369;28;20619;-84
2023/04/14 06:02:37;;;;;;;6.43;2.50;;;4.50;99.90;;;;;;5055536;28;20481;-84
2023/04/14 06:05:05;;;;;;;5.88;2.03;;;4.60;99.90;;;;;;5056266;28;20135;-84
2023/04/14 06:07:31;;;;;;;6.60;2.33;;;4.70;99.90;;;;;;5050088;28;20442;-84
2023/04/14 06:09:56;;;;;;;7.40;3.03;;;4.90;99.90;;;;;;5056480;28;20064;-84
2023/04/14 06:12:22;;;;;;;7.35;2.65;;;5.00;99.90;;;;;;5062390;28;20045;-84
2023/04/14 06:14:47;;;;;;;4.63;2.20;;;5.10;99.90;;;;;;5059992;28;20119;-84
2023/04/14 06:17:13;;;;;;;6.97;2.28;;;5.30;99.90;;;;;;5033726;28;20044;-83
2023/04/14 06:19:38;;;;;;;4.32;2.20;;;5.40;99.90;;;;;;5058451;28;20079;-83
2023/04/14 06:22:04;;;;;;;6.07;2.33;;;5.50;99.90;;;;;;5044371;28;20032;-84
2023/04/14 06:24:33;;;;;;;5.60;2.58;;;5.60;99.90;;;;;;5061861;28;20104;-83
2023/04/14 06:27:00;;;;;;;6.65;2.10;;;5.70;99.90;;;;;;5040617;28;20058;-84
2023/04/14 06:29:26;;;;;;;6.35;2.22;;;5.80;99.90;;;;;;5052582;28;20048;-84
2023/04/14 06:31:51;;;;;;;7.60;2.50;;;5.90;99.90;;;;;;5057999;28;20064;-84
2023/04/14 06:34:17;;;;;;;5.68;2.40;;;6.00;99.90;;;;;;5056395;28;20120;-83
2023/04/14 06:36:42;;;;;;;6.65;2.10;;;6.20;99.90;;;;;;5061455;28;20557;-83
2023/04/14 06:39:09;;;;;;;6.18;2.50;;;6.20;99.90;;;;;;5054427;28;20036;-84
2023/04/14 06:41:34;;;;;;;5.20;2.20;;;6.40;99.90;;;;;;5057829;28;20037;-84
2023/04/14 06:44:00;;;;;;;6.75;2.25;;;6.50;99.90;;;;;;5069486;28;20093;-84
2023/04/14 06:46:25;;;;;;;6.55;2.63;;;6.60;99.90;;;;;;5054885;28;20043;-83
2023/04/14 06:48:51;;;;;;;5.57;2.28;;;6.70;99.90;;;;;;5058443;28;20052;-84
2023/04/14 06:51:17;;;;;;;5.18;2.20;;;6.90;99.90;;;;;;5066131;28;20036;-84
2023/04/14 06:53:43;;;;;;;7.80;2.58;;;6.90;99.90;;;;;;5057325;28;20098;-84
2023/04/14 06:56:08;;;;;;;4.70;2.13;;;7.00;99.90;;;;;;5052933;28;20041;-83
2023/04/14 06:58:34;;;;;;;9.70;2.50;;;7.20;99.90;;;;;;5063534;28;20467;-84
2023/04/14 07:01:01;;;;;;;6.80;2.50;;;7.30;99.90;;;;;;5067509;28;20036;-84
2023/04/14 07:03:29;;;;;;;9.00;2.65;;;7.40;99.90;;;;;;5040300;28;20056;-84
2023/04/14 07:06:05;;;;;;;6.90;2.78;;;7.50;99.90;;;;;;5063027;28;20099;-84
2023/04/14 07:08:33;;;;;;;6.30;2.20;;;7.60;99.90;;;;;;5059236;28;20033;-85
2023/04/14 07:11:04;;;;;;;7.22;2.30;;;7.70;99.90;;;;;;5042634;28;20092;-84
2023/04/14 07:13:29;;;;;;;4.40;2.15;;;7.90;99.90;;;;;;5056290;28;20032;-84
2023/04/14 07:15:55;;;;;;;8.38;2.63;;;8.00;99.90;;;;;;5058286;28;20036;-84
2023/04/14 07:18:21;;;;;;;5.00;2.10;;;8.10;99.90;;;;;;5056257;28;20119;-84
2023/04/14 07:20:50;;;;;;;11.45;3.00;;;8.30;99.90;;;;;;5064343;28;20095;-84
2023/04/14 07:23:16;;;;;;;7.68;1.95;;;8.40;99.90;;;;;;5039035;28;20040;-85
2023/04/14 07:25:41;;;;;;;3.72;1.90;;;8.50;99.90;;;;;;5064287;28;20116;-84
2023/04/14 07:28:07;;;;;;;6.40;1.95;;;8.60;99.90;;;;;;5058816;28;20028;-84
2023/04/14 07:30:32;;;;;;;10.25;2.15;;;8.80;99.90;;;;;;5040972;28;20051;-84
2023/04/14 07:32:58;;;;;;;7.05;2.72;;;8.90;99.90;;;;;;5056651;28;20087;-85
2023/04/14 07:35:25;;;;;;;5.70;1.83;;;9.00;99.90;;;;;;5043780;28;20044;-84
2023/04/14 07:37:51;;;;;;;10.20;2.53;;;9.10;99.90;;;;;;5060183;28;20041;-85
2023/04/14 07:40:17;;;;;;;5.47;2.15;;;9.20;99.90;;;;;;5059527;28;20131;-84
2023/04/14 07:42:42;;;;;;;5.28;2.05;;;9.40;99.90;;;;;;5051447;28;20424;-85
2023/04/14 07:45:09;;;;;;;7.45;2.38;;;9.50;99.90;;;;;;5056261;28;20049;-85
2023/04/14 07:47:35;;;;;;;6.72;2.08;;;9.60;99.90;;;;;;5050663;28;20036;-83
2023/04/14 07:50:00;;;;;;;6.00;1.90;;;9.70;99.90;;;;;;5065827;28;20046;-84
2023/04/14 07:52:26;;;;;;;6.40;1.85;;;9.80;99.90;;;;;;5065884;28;20040;-84
2023/04/14 07:54:51;;;;;;;5.50;2.10;;;9.90;99.90;;;;;;5048071;28;20453;-84
2023/04/14 07:57:17;;;;;;;7.43;1.90;;;10.00;99.90;;;;;;5067632;28;20087;-84
2023/04/14 07:59:43;;;;;;;7.07;1.90;;;10.10;99.90;;;;;;5045696;28;20040;-84
2023/04/14 08:02:09;;;;;;;4.32;1.40;;;10.30;99.90;;;;;;5066633;28;20043;-84
2023/04/14 08:04:35;;;;;;;4.93;1.50;;;10.30;99.90;;;;;;5063243;28;20454;-84
2023/04/14 08:07:01;;;;;;;8.43;2.08;;;10.40;99.90;;;;;;5051018;28;20036;-83
2023/04/14 08:09:27;;;;;;;7.72;1.60;;;10.50;99.90;;;;;;5072361;28;20115;-83
2023/04/14 08:11:52;;;;;;;4.93;1.52;;;10.60;99.90;;;;;;5061508;28;20224;-82
2023/04/14 08:14:18;;;;;;;8.57;2.03;;;10.70;99.90;;;;;;5039632;28;20041;-83
2023/04/14 08:16:43;;;;;;;6.13;1.52;;;10.80;99.90;;;;;;5058275;28;20080;-84
2023/04/14 08:19:09;;;;;;;6.82;1.80;;;10.90;99.90;;;;;;5053953;28;20036;-83
2023/04/14 08:21:35;;;;;;;7.28;1.80;;;11.00;99.90;;;;;;5072614;28;20036;-83
2023/04/14 08:24:00;;;;;;;8.98;1.98;;;11.10;99.90;;;;;;5063838;28;20040;-84
2023/04/14 08:26:26;;;;;;;7.28;1.75;;;11.20;99.90;;;;;;5061212;28;20049;-84
2023/04/14 08:28:52;;;;;;;6.50;1.75;;;11.30;99.90;;;;;;5047346;28;20047;-83
2023/04/14 08:31:21;;;;;;;5.72;1.85;;;11.40;99.90;;;;;;5065650;28;20037;-83
2023/04/14 08:33:46;;;;;;;8.32;2.08;;;11.30;99.90;;;;;;5050303;28;20585;-83
2023/04/14 08:36:12;;;;;;;6.63;1.90;;;11.40;99.90;;;;;;5053817;28;20135;-84
2023/04/14 08:38:38;;;;;;;7.80;1.90;;;11.60;99.90;;;;;;5067629;28;20123;-85
2023/04/14 08:41:07;;;;;;;9.93;1.75;;;11.70;99.90;;;;;;5066880;28;20028;-83
2023/04/14 08:43:34;;;;;;;6.38;2.00;;;11.80;99.90;;;;;;5064768;28;20488;-82
2023/04/14 08:46:00;;;;;;;11.52;2.35;;;11.90;99.90;;;;;;5050781;28;20122;-83
2023/04/14 08:48:29;;;;;;;6.60;1.92;;;12.00;99.90;;;;;;5068188;28;20047;-83
2023/04/14 08:51:10;;;;;;;5.28;1.58;;;12.10;99.90;;;;;;5049954;28;20044;-82
2023/04/14 08:53:42;;;;;;;7.32;1.88;;;12.10;99.90;;;;;;5049414;28;20114;-84
2023/04/14 08:56:12;;;;;;;4.88;1.65;;;12.30;99.90;;;;;;5054764;28;20412;-82
2023/04/14 08:58:39;;;;;;;8.52;1.98;;;12.30;99.90;;;;;;5042149;28;20528;-84
2023/04/14 09:01:05;;;;;;;7.32;1.65;;;12.50;99.90;;;;;;5046885;28;20044;-83
2023/04/14 09:03:31;;;;;;;5.60;1.90;;;12.50;99.90;;;;;;5043872;28;20114;-82
2023/04/14 09:05:57;;;;;;;7.90;2.10;;;12.60;99.90;;;;;;5035713;28;20128;-83
2023/04/14 09:08:23;;;;;;;4.28;1.45;;;12.70;99.90;;;;;;5063950;28;20024;-83
2023/04/14 09:10:49;;;;;;;5.53;1.95;;;12.70;99.90;;;;;;5060175;28;20500;-84
2023/04/14 09:13:16;;;;;;;8.35;1.80;;;12.80;99.90;;;;;;5063378;28;20489;-83
2023/04/14 09:15:42;;;;;;;7.25;1.50;;;12.90;99.90;;;;;;5045114;28;20066;-83
2023/04/14 09:18:10;;;;;;;4.88;1.42;;;13.00;99.90;;;;;;5054339;28;20040;-83
2023/04/14 09:20:36;;;;;;;8.25;1.73;;;13.10;99.90;;;;;;5044995;28;20078;-82
2023/04/14 09:23:03;;;;;;;7.45;1.70;;;13.00;99.90;;;;;;5053114;28;20087;-83
2023/04/14 09:25:28;;;;;;;8.45;2.08;;;13.00;99.90;;;;;;5061562;28;20093;-83
2023/04/14 09:27:54;;;;;;;7.82;1.90;;;12.90;99.90;;;;;;5046983;28;20036;-82
2023/04/14 09:30:20;;;;;;;7.47;1.80;;;13.00;99.90;;;;;;5064601;28;20545;-82
2023/04/14 09:32:49;;;;;;;10.73;2.20;;;13.00;99.90;;;;;;5070873;28;20036;-83
2023/04/14 09:35:15;;;;;;;6.15;1.58;;;13.20;99.90;;;;;;5053508;28;20047;-83
2023/04/14 09:37:43;;;;;;;8.00;2.10;;;13.30;99.90;;;;;;5054148;28;20074;-81
2023/04/14 09:40:09;;;;;;;9.23;1.95;;;13.40;99.90;;;;;;5072715;28;20663;-82
2023/04/14 09:42:39;;;;;;;16.23;4.03;;;13.60;99.90;;;;;;5068160;28;20395;-83
2023/04/14 09:45:07;;;;;;;5.35;1.67;;;13.70;99.90;;;;;;5053730;28;20043;-83
2023/04/14 09:47:32;;;;;;;6.15;1.77;;;13.70;99.90;;;;;;5072005;28;20041;-83
2023/04/14 09:49:59;;;;;;;7.25;1.60;;;13.80;99.90;;;;;;5067511;28;20098;-83
2023/04/14 09:52:37;;;;;;;6.15;2.17;;;13.90;99.90;;;;;;5071241;28;20040;-83
2023/04/14 09:55:14;;;;;;;9.45;1.70;;;14.00;99.90;;;;;;5044922;28;20420;-82
2023/04/14 09:57:46;;;;;;;12.75;2.42;;;14.00;99.90;;;;;;5050464;28;20041;-84
2023/04/14 10:00:14;;;;;;;10.85;2.60;;;13.80;99.90;;;;;;5068228;28;20049;-85
2023/04/14 10:02:54;;;;;;;9.45;2.55;;;13.50;99.90;;;;;;5062868;28;20040;-84
2023/04/14 10:05:25;;;;;;;8.18;2.20;;;13.20;99.90;;;;;;5063411;28;20416;-83
2023/04/14 10:07:50;;;;;;;9.93;1.90;;;13.20;99.90;;;;;;5059762;28;20038;-85
2023/04/14 10:10:16;;;;;;;8.30;2.35;;;13.50;99.90;;;;;;5070807;28;20127;-83
2023/04/14 10:12:43;;;;;;;10.75;2.75;;;13.80;99.90;;;;;;5061727;28;20049;-83
2023/04/14 10:15:10;;;;;;;7.78;1.90;;;14.00;99.90;;;;;;5039933;28;20085;-84
2023/04/14 10:17:37;;;;;;;6.63;2.10;;;14.00;99.90;;;;;;5073527;28;20051;-83
2023/04/14 10:20:05;;;;;;;8.32;2.10;;;14.00;99.90;;;;;;5042958;28;20068;-82
2023/04/14 10:22:31;;;;;;;10.25;2.33;;;14.40;99.90;;;;;;5066611;28;20486;-82
2023/04/14 10:24:58;;;;;;;7.90;1.70;;;14.60;99.90;;;;;;5074782;28;20080;-83
2023/04/14 10:27:27;;;;;;;10.93;1.90;;;14.50;99.90;;;;;;5044248;28;20036;-82
2023/04/14 10:29:53;;;;;;;9.40;2.10;;;14.70;99.90;;;;;;5053346;28;20461;-82
2023/04/14 10:32:20;;;;;;;7.38;2.00;;;15.00;99.90;;;;;;5041077;28;20056;-84
2023/04/14 10:35:05;;;;;;;6.28;1.88;;;15.00;99.90;;;;;;5056703;28;20043;-84
2023/04/14 10:37:31;;;;;;;6.68;1.90;;;14.90;99.90;;;;;;5064125;28;20029;-83
2023/04/14 10:39:59;;;;;;;8.75;1.90;;;15.20;99.90;;;;;;5054540;28;20430;-84
2023/04/14 10:42:25;;;;;;;7.18;1.92;;;15.50;99.90;;;;;;5059931;28;20052;-84
2023/04/14 10:45:05;;;;;;;13.30;2.50;;;16.00;99.90;;;;;;5066458;28;20534;-84
2023/04/14 10:47:32;;;;;;;5.07;2.05;;;15.70;99.90;;;;;;5071915;28;20036;-85
2023/04/14 10:50:12;;;;;;;6.65;1.67;;;15.90;99.90;;;;;;5047623;28;20025;-84
2023/04/14 10:52:48;;;;;;;5.03;1.85;;;16.20;99.90;;;;;;5060941;28;20102;-85
2023/04/14 10:55:14;;;;;;;9.43;2.55;;;16.00;99.90;;;;;;5047263;28;20492;-85
2023/04/14 10:57:42;;;;;;;7.85;2.00;;;16.00;99.90;;;;;;5067210;28;20040;-85
2023/04/14 11:00:23;;;;;;;6.38;1.80;;;16.00;99.90;;;;;;5066468;28;20049;-84
2023/04/14 11:03:12;;;;;;;7.68;1.83;;;15.80;99.90;;;;;;5051504;28;20045;-84
2023/04/14 11:05:48;;;;;;;5.97;1.75;;;15.60;99.90;;;;;;5054042;28;20500;-84
2023/04/14 11:08:22;;;;;;;6.53;1.90;;;15.40;99.90;;;;;;5058580;28;20485;-83
2023/04/14 11:10:49;;;;;;;7.72;2.15;;;15.20;99.90;;;;;;5058896;28;20051;-83
2023/04/14 11:13:16;;;;;;;10.93;2.20;;;15.40;99.90;;;;;;5061847;28;20501;-83
2023/04/14 11:16:00;;;;;;;8.40;1.90;;;15.70;99.90;;;;;;5058844;28;20049;-83
2023/04/14 11:18:28;;;;;;;7.35;1.80;;;16.00;99.90;;;;;;5071466;28;20055;-85
2023/04/14 11:21:05;;;;;;;7.63;2.20;;;16.20;99.90;;;;;;5069685;28;20209;-84
2023/04/14 11:23:31;;;;;;;7.47;1.52;;;16.50;99.90;;;;;;5075084;28;20131;-84
2023/04/14 11:25:58;;;;;;;6.63;1.40;;;16.70;99.90;;;;;;5074347;28;20103;-83
2023/04/14 11:28:37;;;;;;;4.38;1.42;;;17.10;99.90;;;;;;5063570;28;20047;-83
2023/04/14 11:31:07;;;;;;;3.55;1.10;;;17.00;99.90;;;;;;5069290;28;20098;-83
2023/04/14 11:33:36;;;;;;;6.00;1.40;;;16.90;99.90;;;;;;5066569;28;20055;-83
2023/04/14 11:36:03;;;;;;;7.82;1.48;;;16.80;99.90;;;;;;5065834;28;20055;-83
2023/04/14 11:38:29;;;;;;;5.85;1.45;;;16.60;99.90;;;;;;5068511;28;20116;-82
2023/04/14 11:40:55;;;;;;;4.55;1.60;;;16.60;99.90;;;;;;5068240;28;20048;-82
2023/04/14 11:43:22;;;;;;;5.18;1.33;;;16.70;99.90;;;;;;5058379;28;20045;-83
2023/04/14 11:45:48;;;;;;;6.50;1.60;;;17.00;99.90;;;;;;5052475;28;20132;-83
2023/04/14 11:48:18;;;;;;;6.55;1.77;;;17.30;99.90;;;;;;5052563;28;20079;-84
2023/04/14 11:50:46;;;;;;;5.18;1.60;;;17.70;99.90;;;;;;5053719;28;20400;-83
2023/04/14 11:53:13;;;;;;;4.75;1.27;;;17.80;99.90;;;;;;5052108;28;20045;-83
2023/04/14 11:55:43;;;;;;;5.15;1.40;;;17.90;99.30;;;;;;5053347;28;20033;-84
2023/04/14 11:58:11;;;;;;;5.47;1.55;;;17.80;99.00;;;;;;5052824;28;20401;-83
2023/04/14 12:00:37;;;;;;;5.65;1.90;;;18.00;99.00;;;;;;5060878;28;20036;-83
2023/04/14 12:03:03;;;;;;;3.97;1.45;;;17.90;99.10;;;;;;5056141;28;20033;-83
2023/04/14 12:05:31;;;;;;;3.92;1.20;;;17.60;99.70;;;;;;5060282;28;20056;-82
2023/04/14 12:07:58;;;;;;;3.80;1.27;;;17.30;99.20;;;;;;5063287;28;20029;-84
2023/04/14 12:10:25;;;;;;;6.28;1.60;;;16.90;98.90;;;;;;5052986;28;20041;-78
2023/04/14 12:13:01;;;;;;;6.40;1.73;;;16.80;99.40;;;;;;5051868;28;20155;-83
2023/04/14 12:15:28;;;;;;;5.55;1.40;;;16.50;98.40;;;;;;5064592;28;20044;-82
2023/04/14 12:17:54;;;;;;;6.57;1.50;;;16.40;99.00;;;;;;5059516;28;20496;-82
2023/04/14 12:20:20;;;;;;;5.53;1.55;;;16.80;99.40;;;;;;5057298;28;20067;-86
2023/04/14 12:22:48;;;;;;;4.70;1.35;;;17.30;98.90;;;;;;5059236;28;20045;-84
2023/04/14 12:25:14;;;;;;;4.63;1.30;;;17.60;98.80;;;;;;5059741;28;20151;-84
2023/04/14 12:27:40;;;;;;;5.22;1.40;;;17.50;97.80;;;;;;5062162;28;20124;-83
2023/04/14 12:30:08;;;;;;;6.78;1.27;;;17.60;97.10;;;;;;5059106;28;20040;-83
2023/04/14 12:32:39;;;;;;;7.20;1.60;;;18.10;97.30;;;;;;5060741;28;20041;-83
2023/04/14 12:35:05;;;;;;;3.88;1.17;;;18.30;96.00;;;;;;5063031;28;20048;-83
2023/04/14 12:37:33;;;;;;;3.65;1.25;;;18.60;95.80;;;;;;5061641;28;20077;-83
2023/04/14 12:40:00;;;;;;;6.28;1.65;;;18.70;94.20;;;;;;5054802;28;20403;-83
2023/04/14 12:42:27;;;;;;;4.90;1.48;;;18.20;93.10;;;;;;5054948;28;20043;-83
2023/04/14 12:45:00;;;;;;;7.90;1.83;;;18.10;92.20;;;;;;5054974;28;20411;-83
2023/04/14 12:47:27;;;;;;;6.05;1.38;;;18.40;93.20;;;;;;5047540;28;20043;-84
2023/04/14 12:49:53;;;;;;;7.32;1.80;;;18.90;93.50;;;;;;5057030;28;21224;-83
2023/04/14 12:52:32;;;;;;;6.03;1.70;;;19.30;93.50;;;;;;5061946;28;20462;-83
2023/04/14 12:54:58;;;;;;;6.05;1.85;;;19.80;93.70;;;;;;5059706;28;20076;-84
2023/04/14 12:57:23;;;;;;;5.78;1.80;;;20.00;94.20;;;;;;5050791;28;20037;-83